sensor_id;sensor_type;location;lat;lon;timestamp;P1;P2;P0
78408;PMS5003;67697;50.750;-3.270;2023-06-14T00:02:10;22;22;
78408;PMS5003;67697;50.750;-3.270;2023-06-14T00:04:35;23;22;
78408;PMS5003;67697;50.750;-3.270;2023-06-14T00:07:01;23;22;
78408;PMS5003;67697;50.750;-3.270;2023-06-14T00:09:26;19;19;
78408;PMS5003;67697;50.750;-3.270;2023-06-14T00:11:52;26;25;
78408;PMS5003;67697;50.750;-3.270;2023-06-14T00:14:17;25;23;
78408;PMS5003;67697;50.750;-3.270;2023-06-14T00:16:43;18;18;
78408;PMS5003;67697;50.750;-3.270;2023-06-14T00:19:08;22;22;
78408;PMS5003;67697;50.750;-3.270;2023-06-14T00:21:34;26;25;
78408;PMS5003;67697;50.750;-3.270;2023-06-14T00:24:00;23;22;
78408;PMS5003;67697;50.750;-3.270;2023-06-14T00:26:25;26;25;
78408;PMS5003;67697;50.750;-3.270;2023-06-14T00:28:50;25;24;
78408;PMS5003;67697;50.750;-3.270;2023-06-14T00:31:15;23;22;
78408;PMS5003;67697;50.750;-3.270;2023-06-14T00:33:41;22;22;
78408;PMS5003;67697;50.750;-3.270;2023-06-14T00:36:07;27;26;
78408;PMS5003;67697;50.750;-3.270;2023-06-14T00:38:32;24;20;
78408;PMS5003;67697;50.750;-3.270;2023-06-14T00:40:58;26;22;
78408;PMS5003;67697;50.750;-3.270;2023-06-14T00:43:24;24;24;
78408;PMS5003;67697;50.750;-3.270;2023-06-14T00:45:49;25;25;
78408;PMS5003;67697;50.750;-3.270;2023-06-14T00:48:15;21;20;
78408;PMS5003;67697;50.750;-3.270;2023-06-14T00:50:40;25;23;
78408;PMS5003;67697;50.750;-3.270;2023-06-14T00:53:06;27;26;
78408;PMS5003;67697;50.750;-3.270;2023-06-14T00:55:31;24;24;
78408;PMS5003;67697;50.750;-3.270;2023-06-14T00:57:57;21;21;
78408;PMS5003;67697;50.750;-3.270;2023-06-14T01:00:22;28;25;
78408;PMS5003;67697;50.750;-3.270;2023-06-14T01:02:48;24;24;
78408;PMS5003;67697;50.750;-3.270;2023-06-14T01:05:14;24;24;
78408;PMS5003;67697;50.750;-3.270;2023-06-14T01:07:43;24;22;
78408;PMS5003;67697;50.750;-3.270;2023-06-14T01:10:08;26;25;
78408;PMS5003;67697;50.750;-3.270;2023-06-14T01:12:31;25;24;
78408;PMS5003;67697;50.750;-3.270;2023-06-14T01:14:55;26;25;
78408;PMS5003;67697;50.750;-3.270;2023-06-14T01:17:21;25;23;
78408;PMS5003;67697;50.750;-3.270;2023-06-14T01:19:47;28;27;
78408;PMS5003;67697;50.750;-3.270;2023-06-14T01:22:12;25;23;
78408;PMS5003;67697;50.750;-3.270;2023-06-14T01:24:37;25;24;
78408;PMS5003;67697;50.750;-3.270;2023-06-14T01:27:03;28;28;
78408;PMS5003;67697;50.750;-3.270;2023-06-14T01:29:28;27;27;
78408;PMS5003;67697;50.750;-3.270;2023-06-14T01:31:53;29;25;
78408;PMS5003;67697;50.750;-3.270;2023-06-14T01:34:19;23;22;
78408;PMS5003;67697;50.750;-3.270;2023-06-14T01:36:44;27;27;
78408;PMS5003;67697;50.750;-3.270;2023-06-14T01:39:10;26;25;
78408;PMS5003;67697;50.750;-3.270;2023-06-14T01:41:35;28;28;
78408;PMS5003;67697;50.750;-3.270;2023-06-14T01:44:01;22;22;
78408;PMS5003;67697;50.750;-3.270;2023-06-14T01:46:26;24;24;
78408;PMS5003;67697;50.750;-3.270;2023-06-14T01:48:52;29;28;
78408;PMS5003;67697;50.750;-3.270;2023-06-14T01:51:17;24;24;
78408;PMS5003;67697;50.750;-3.270;2023-06-14T01:53:43;29;29;
78408;PMS5003;67697;50.750;-3.270;2023-06-14T01:56:08;22;22;
78408;PMS5003;67697;50.750;-3.270;2023-06-14T01:58:34;22;22;
78408;PMS5003;67697;50.750;-3.270;2023-06-14T02:00:59;25;25;
78408;PMS5003;67697;50.750;-3.270;2023-06-14T02:03:24;24;23;
78408;PMS5003;67697;50.750;-3.270;2023-06-14T02:05:49;27;27;
78408;PMS5003;67697;50.750;-3.270;2023-06-14T02:08:15;27;26;
78408;PMS5003;67697;50.750;-3.270;2023-06-14T02:10:40;28;27;
78408;PMS5003;67697;50.750;-3.270;2023-06-14T02:13:05;26;23;
78408;PMS5003;67697;50.750;-3.270;2023-06-14T02:15:31;22;22;
78408;PMS5003;67697;50.750;-3.270;2023-06-14T02:17:56;29;29;
78408;PMS5003;67697;50.750;-3.270;2023-06-14T02:20:22;20;20;
78408;PMS5003;67697;50.750;-3.270;2023-06-14T02:22:47;25;24;
78408;PMS5003;67697;50.750;-3.270;2023-06-14T02:25:12;23;23;
78408;PMS5003;67697;50.750;-3.270;2023-06-14T02:27:38;26;25;
78408;PMS5003;67697;50.750;-3.270;2023-06-14T02:30:04;28;27;
78408;PMS5003;67697;50.750;-3.270;2023-06-14T02:32:29;31;31;
78408;PMS5003;67697;50.750;-3.270;2023-06-14T02:34:54;29;27;
78408;PMS5003;67697;50.750;-3.270;2023-06-14T02:37:20;28;28;
78408;PMS5003;67697;50.750;-3.270;2023-06-14T02:39:46;29;28;
78408;PMS5003;67697;50.750;-3.270;2023-06-14T02:42:11;25;23;
78408;PMS5003;67697;50.750;-3.270;2023-06-14T02:44:36;27;27;
78408;PMS5003;67697;50.750;-3.270;2023-06-14T02:47:01;31;30;
78408;PMS5003;67697;50.750;-3.270;2023-06-14T02:49:27;25;25;
78408;PMS5003;67697;50.750;-3.270;2023-06-14T02:51:52;24;24;
78408;PMS5003;67697;50.750;-3.270;2023-06-14T02:54:17;29;25;
78408;PMS5003;67697;50.750;-3.270;2023-06-14T02:56:42;33;28;
78408;PMS5003;67697;50.750;-3.270;2023-06-14T02:59:08;26;26;
78408;PMS5003;67697;50.750;-3.270;2023-06-14T03:01:33;29;27;
78408;PMS5003;67697;50.750;-3.270;2023-06-14T03:03:59;35;35;
78408;PMS5003;67697;50.750;-3.270;2023-06-14T03:06:24;33;29;
78408;PMS5003;67697;50.750;-3.270;2023-06-14T03:08:50;30;29;
78408;PMS5003;67697;50.750;-3.270;2023-06-14T03:11:15;29;26;
78408;PMS5003;67697;50.750;-3.270;2023-06-14T03:13:40;31;30;
78408;PMS5003;67697;50.750;-3.270;2023-06-14T03:16:06;28;28;
78408;PMS5003;67697;50.750;-3.270;2023-06-14T03:18:31;27;25;
78408;PMS5003;67697;50.750;-3.270;2023-06-14T03:20:57;28;27;
78408;PMS5003;67697;50.750;-3.270;2023-06-14T03:23:22;31;29;
78408;PMS5003;67697;50.750;-3.270;2023-06-14T03:25:48;35;33;
78408;PMS5003;67697;50.750;-3.270;2023-06-14T03:28:13;34;33;
78408;PMS5003;67697;50.750;-3.270;2023-06-14T03:30:39;27;25;
78408;PMS5003;67697;50.750;-3.270;2023-06-14T03:33:04;28;26;
78408;PMS5003;67697;50.750;-3.270;2023-06-14T03:35:29;29;28;
78408;PMS5003;67697;50.750;-3.270;2023-06-14T03:37:54;30;29;
78408;PMS5003;67697;50.750;-3.270;2023-06-14T03:40:20;36;33;
78408;PMS5003;67697;50.750;-3.270;2023-06-14T03:42:45;32;32;
78408;PMS5003;67697;50.750;-3.270;2023-06-14T03:45:10;35;32;
78408;PMS5003;67697;50.750;-3.270;2023-06-14T03:47:36;31;30;
78408;PMS5003;67697;50.750;-3.270;2023-06-14T03:50:02;34;30;
78408;PMS5003;67697;50.750;-3.270;2023-06-14T03:52:27;34;32;
78408;PMS5003;67697;50.750;-3.270;2023-06-14T03:54:53;34;34;
78408;PMS5003;67697;50.750;-3.270;2023-06-14T03:57:18;33;33;
78408;PMS5003;67697;50.750;-3.270;2023-06-14T03:59:43;32;32;
78408;PMS5003;67697;50.750;-3.270;2023-06-14T04:02:09;32;30;
78408;PMS5003;67697;50.750;-3.270;2023-06-14T04:04:34;33;31;
78408;PMS5003;67697;50.750;-3.270;2023-06-14T04:06:59;40;38;
78408;PMS5003;67697;50.750;-3.270;2023-06-14T04:09:25;37;37;
78408;PMS5003;67697;50.750;-3.270;2023-06-14T04:11:51;40;36;
78408;PMS5003;67697;50.750;-3.270;2023-06-14T04:14:16;37;34;
78408;PMS5003;67697;50.750;-3.270;2023-06-14T04:16:41;33;32;
78408;PMS5003;67697;50.750;-3.270;2023-06-14T04:19:07;30;29;
78408;PMS5003;67697;50.750;-3.270;2023-06-14T04:21:32;30;28;
78408;PMS5003;67697;50.750;-3.270;2023-06-14T04:23:57;35;33;
78408;PMS5003;67697;50.750;-3.270;2023-06-14T04:26:22;34;33;
78408;PMS5003;67697;50.750;-3.270;2023-06-14T04:28:48;35;33;
78408;PMS5003;67697;50.750;-3.270;2023-06-14T04:31:13;37;34;
78408;PMS5003;67697;50.750;-3.270;2023-06-14T04:33:39;28;28;
78408;PMS5003;67697;50.750;-3.270;2023-06-14T04:36:05;34;32;
78408;PMS5003;67697;50.750;-3.270;2023-06-14T04:38:30;35;34;
78408;PMS5003;67697;50.750;-3.270;2023-06-14T04:40:55;41;37;
78408;PMS5003;67697;50.750;-3.270;2023-06-14T04:43:21;34;34;
78408;PMS5003;67697;50.750;-3.270;2023-06-14T04:45:46;34;34;
78408;PMS5003;67697;50.750;-3.270;2023-06-14T04:48:12;39;38;
78408;PMS5003;67697;50.750;-3.270;2023-06-14T04:50:36;37;36;
78408;PMS5003;67697;50.750;-3.270;2023-06-14T04:53:02;36;34;
78408;PMS5003;67697;50.750;-3.270;2023-06-14T04:55:27;33;33;
78408;PMS5003;67697;50.750;-3.270;2023-06-14T04:57:53;36;34;
78408;PMS5003;67697;50.750;-3.270;2023-06-14T05:00:18;40;38;
78408;PMS5003;67697;50.750;-3.270;2023-06-14T05:02:43;35;34;
78408;PMS5003;67697;50.750;-3.270;2023-06-14T05:05:09;33;33;
78408;PMS5003;67697;50.750;-3.270;2023-06-14T05:07:34;34;31;
78408;PMS5003;67697;50.750;-3.270;2023-06-14T05:09:59;33;32;
78408;PMS5003;67697;50.750;-3.270;2023-06-14T05:12:25;39;34;
78408;PMS5003;67697;50.750;-3.270;2023-06-14T05:14:50;35;34;
78408;PMS5003;67697;50.750;-3.270;2023-06-14T05:17:15;34;34;
78408;PMS5003;67697;50.750;-3.270;2023-06-14T05:19:41;30;29;
78408;PMS5003;67697;50.750;-3.270;2023-06-14T05:22:06;32;31;
78408;PMS5003;67697;50.750;-3.270;2023-06-14T05:24:32;33;33;
78408;PMS5003;67697;50.750;-3.270;2023-06-14T05:26:57;32;32;
78408;PMS5003;67697;50.750;-3.270;2023-06-14T05:29:22;30;30;
78408;PMS5003;67697;50.750;-3.270;2023-06-14T05:31:47;35;32;
78408;PMS5003;67697;50.750;-3.270;2023-06-14T05:34:12;38;33;
78408;PMS5003;67697;50.750;-3.270;2023-06-14T05:36:38;32;32;
78408;PMS5003;67697;50.750;-3.270;2023-06-14T05:39:03;26;26;
78408;PMS5003;67697;50.750;-3.270;2023-06-14T05:41:28;28;27;
78408;PMS5003;67697;50.750;-3.270;2023-06-14T05:43:54;28;27;
78408;PMS5003;67697;50.750;-3.270;2023-06-14T05:46:19;26;24;
78408;PMS5003;67697;50.750;-3.270;2023-06-14T05:48:44;26;26;
78408;PMS5003;67697;50.750;-3.270;2023-06-14T05:51:10;26;26;
78408;PMS5003;67697;50.750;-3.270;2023-06-14T05:53:35;24;23;
78408;PMS5003;67697;50.750;-3.270;2023-06-14T05:56:01;26;23;
78408;PMS5003;67697;50.750;-3.270;2023-06-14T05:58:25;23;21;
78408;PMS5003;67697;50.750;-3.270;2023-06-14T06:00:51;26;23;
78408;PMS5003;67697;50.750;-3.270;2023-06-14T06:03:16;27;25;
78408;PMS5003;67697;50.750;-3.270;2023-06-14T06:05:42;21;21;
78408;PMS5003;67697;50.750;-3.270;2023-06-14T06:08:08;25;23;
78408;PMS5003;67697;50.750;-3.270;2023-06-14T06:10:34;26;24;
78408;PMS5003;67697;50.750;-3.270;2023-06-14T06:12:59;27;26;
78408;PMS5003;67697;50.750;-3.270;2023-06-14T06:15:25;20;20;
78408;PMS5003;67697;50.750;-3.270;2023-06-14T06:17:50;27;27;
78408;PMS5003;67697;50.750;-3.270;2023-06-14T06:20:16;25;25;
78408;PMS5003;67697;50.750;-3.270;2023-06-14T06:22:41;22;22;
78408;PMS5003;67697;50.750;-3.270;2023-06-14T06:25:07;19;18;
78408;PMS5003;67697;50.750;-3.270;2023-06-14T06:27:32;23;23;
78408;PMS5003;67697;50.750;-3.270;2023-06-14T06:29:57;22;22;
78408;PMS5003;67697;50.750;-3.270;2023-06-14T06:32:22;20;20;
78408;PMS5003;67697;50.750;-3.270;2023-06-14T06:34:48;19;18;
78408;PMS5003;67697;50.750;-3.270;2023-06-14T06:37:13;22;20;
78408;PMS5003;67697;50.750;-3.270;2023-06-14T06:39:38;23;19;
78408;PMS5003;67697;50.750;-3.270;2023-06-14T06:42:04;25;22;
78408;PMS5003;67697;50.750;-3.270;2023-06-14T06:44:29;20;20;
78408;PMS5003;67697;50.750;-3.270;2023-06-14T06:46:54;22;21;
78408;PMS5003;67697;50.750;-3.270;2023-06-14T06:49:20;21;19;
78408;PMS5003;67697;50.750;-3.270;2023-06-14T06:54:11;18;18;
78408;PMS5003;67697;50.750;-3.270;2023-06-14T06:56:37;19;17;
78408;PMS5003;67697;50.750;-3.270;2023-06-14T06:59:02;22;22;
78408;PMS5003;67697;50.750;-3.270;2023-06-14T07:01:27;21;19;
78408;PMS5003;67697;50.750;-3.270;2023-06-14T07:03:53;17;16;
78408;PMS5003;67697;50.750;-3.270;2023-06-14T07:06:18;17;17;
78408;PMS5003;67697;50.750;-3.270;2023-06-14T07:08:44;20;20;
78408;PMS5003;67697;50.750;-3.270;2023-06-14T07:11:09;21;19;
78408;PMS5003;67697;50.750;-3.270;2023-06-14T07:13:35;18;17;
78408;PMS5003;67697;50.750;-3.270;2023-06-14T07:16:00;16;16;
78408;PMS5003;67697;50.750;-3.270;2023-06-14T07:18:26;16;16;
78408;PMS5003;67697;50.750;-3.270;2023-06-14T07:20:51;17;17;
78408;PMS5003;67697;50.750;-3.270;2023-06-14T07:23:17;18;18;
78408;PMS5003;67697;50.750;-3.270;2023-06-14T07:25:42;18;18;
78408;PMS5003;67697;50.750;-3.270;2023-06-14T07:28:08;20;20;
78408;PMS5003;67697;50.750;-3.270;2023-06-14T07:30:33;19;19;
78408;PMS5003;67697;50.750;-3.270;2023-06-14T07:32:59;22;22;
78408;PMS5003;67697;50.750;-3.270;2023-06-14T07:35:25;17;17;
78408;PMS5003;67697;50.750;-3.270;2023-06-14T07:37:50;19;19;
78408;PMS5003;67697;50.750;-3.270;2023-06-14T07:40:16;19;19;
78408;PMS5003;67697;50.750;-3.270;2023-06-14T07:42:41;22;21;
78408;PMS5003;67697;50.750;-3.270;2023-06-14T07:45:07;23;23;
78408;PMS5003;67697;50.750;-3.270;2023-06-14T07:47:32;18;17;
78408;PMS5003;67697;50.750;-3.270;2023-06-14T07:49:57;22;22;
78408;PMS5003;67697;50.750;-3.270;2023-06-14T07:52:23;17;17;
78408;PMS5003;67697;50.750;-3.270;2023-06-14T07:54:49;23;21;
78408;PMS5003;67697;50.750;-3.270;2023-06-14T07:57:14;15;15;
78408;PMS5003;67697;50.750;-3.270;2023-06-14T07:59:39;17;15;
78408;PMS5003;67697;50.750;-3.270;2023-06-14T08:02:05;17;16;
78408;PMS5003;67697;50.750;-3.270;2023-06-14T08:04:31;15;14;
78408;PMS5003;67697;50.750;-3.270;2023-06-14T08:06:56;15;13;
78408;PMS5003;67697;50.750;-3.270;2023-06-14T08:09:21;16;14;
78408;PMS5003;67697;50.750;-3.270;2023-06-14T08:11:47;17;15;
78408;PMS5003;67697;50.750;-3.270;2023-06-14T08:14:12;15;15;
78408;PMS5003;67697;50.750;-3.270;2023-06-14T08:16:38;15;13;
78408;PMS5003;67697;50.750;-3.270;2023-06-14T08:19:03;13;13;
78408;PMS5003;67697;50.750;-3.270;2023-06-14T08:21:29;14;13;
78408;PMS5003;67697;50.750;-3.270;2023-06-14T08:23:54;17;13;
78408;PMS5003;67697;50.750;-3.270;2023-06-14T08:26:20;13;11;
78408;PMS5003;67697;50.750;-3.270;2023-06-14T08:28:45;14;13;
78408;PMS5003;67697;50.750;-3.270;2023-06-14T08:31:11;12;11;
78408;PMS5003;67697;50.750;-3.270;2023-06-14T08:33:36;17;14;
78408;PMS5003;67697;50.750;-3.270;2023-06-14T08:36:02;13;13;
78408;PMS5003;67697;50.750;-3.270;2023-06-14T08:38:27;12;12;
78408;PMS5003;67697;50.750;-3.270;2023-06-14T08:40:53;12;12;
78408;PMS5003;67697;50.750;-3.270;2023-06-14T08:43:18;7;7;
78408;PMS5003;67697;50.750;-3.270;2023-06-14T08:45:43;11;11;
78408;PMS5003;67697;50.750;-3.270;2023-06-14T08:48:09;13;12;
78408;PMS5003;67697;50.750;-3.270;2023-06-14T08:50:34;8;8;
78408;PMS5003;67697;50.750;-3.270;2023-06-14T08:53:00;11;11;
78408;PMS5003;67697;50.750;-3.270;2023-06-14T08:55:26;10;10;
78408;PMS5003;67697;50.750;-3.270;2023-06-14T08:57:51;11;11;
78408;PMS5003;67697;50.750;-3.270;2023-06-14T09:00:16;8;8;
78408;PMS5003;67697;50.750;-3.270;2023-06-14T09:02:42;11;11;
78408;PMS5003;67697;50.750;-3.270;2023-06-14T09:05:07;10;10;
78408;PMS5003;67697;50.750;-3.270;2023-06-14T09:07:32;7;7;
78408;PMS5003;67697;50.750;-3.270;2023-06-14T09:10:05;9;9;
78408;PMS5003;67697;50.750;-3.270;2023-06-14T09:12:23;9;8;
78408;PMS5003;67697;50.750;-3.270;2023-06-14T09:14:49;11;9;
78408;PMS5003;67697;50.750;-3.270;2023-06-14T09:17:15;8;8;
78408;PMS5003;67697;50.750;-3.270;2023-06-14T09:19:40;8;8;
78408;PMS5003;67697;50.750;-3.270;2023-06-14T09:22:05;9;7;
78408;PMS5003;67697;50.750;-3.270;2023-06-14T09:24:31;9;8;
78408;PMS5003;67697;50.750;-3.270;2023-06-14T09:26:56;10;10;
78408;PMS5003;67697;50.750;-3.270;2023-06-14T09:29:21;7;7;
78408;PMS5003;67697;50.750;-3.270;2023-06-14T09:31:47;10;8;
78408;PMS5003;67697;50.750;-3.270;2023-06-14T09:34:12;10;8;
78408;PMS5003;67697;50.750;-3.270;2023-06-14T09:36:38;10;8;
78408;PMS5003;67697;50.750;-3.270;2023-06-14T09:39:03;11;9;
78408;PMS5003;67697;50.750;-3.270;2023-06-14T09:41:32;9;9;
78408;PMS5003;67697;50.750;-3.270;2023-06-14T09:43:54;9;9;
78408;PMS5003;67697;50.750;-3.270;2023-06-14T09:46:24;10;9;
78408;PMS5003;67697;50.750;-3.270;2023-06-14T09:48:45;9;9;
78408;PMS5003;67697;50.750;-3.270;2023-06-14T09:51:10;9;9;
78408;PMS5003;67697;50.750;-3.270;2023-06-14T09:53:36;8;8;
78408;PMS5003;67697;50.750;-3.270;2023-06-14T09:56:02;8;8;
78408;PMS5003;67697;50.750;-3.270;2023-06-14T09:58:27;8;8;
78408;PMS5003;67697;50.750;-3.270;2023-06-14T10:00:52;11;9;
78408;PMS5003;67697;50.750;-3.270;2023-06-14T10:03:20;8;8;
78408;PMS5003;67697;50.750;-3.270;2023-06-14T10:05:44;9;9;
78408;PMS5003;67697;50.750;-3.270;2023-06-14T10:08:10;9;8;
78408;PMS5003;67697;50.750;-3.270;2023-06-14T10:10:34;11;11;
78408;PMS5003;67697;50.750;-3.270;2023-06-14T10:13:00;11;7;
78408;PMS5003;67697;50.750;-3.270;2023-06-14T10:15:27;8;8;
78408;PMS5003;67697;50.750;-3.270;2023-06-14T10:17:52;10;7;
78408;PMS5003;67697;50.750;-3.270;2023-06-14T10:20:21;7;7;
78408;PMS5003;67697;50.750;-3.270;2023-06-14T10:22:44;8;8;
78408;PMS5003;67697;50.750;-3.270;2023-06-14T10:25:07;9;9;
78408;PMS5003;67697;50.750;-3.270;2023-06-14T10:27:32;7;7;
78408;PMS5003;67697;50.750;-3.270;2023-06-14T10:30:04;9;7;
78408;PMS5003;67697;50.750;-3.270;2023-06-14T10:32:24;9;9;
78408;PMS5003;67697;50.750;-3.270;2023-06-14T10:34:53;8;8;
78408;PMS5003;67697;50.750;-3.270;2023-06-14T10:37:15;11;8;
78408;PMS5003;67697;50.750;-3.270;2023-06-14T10:39:40;7;6;
78408;PMS5003;67697;50.750;-3.270;2023-06-14T10:42:05;10;8;
78408;PMS5003;67697;50.750;-3.270;2023-06-14T10:44:38;9;7;
78408;PMS5003;67697;50.750;-3.270;2023-06-14T10:46:58;10;7;
78408;PMS5003;67697;50.750;-3.270;2023-06-14T10:51:49;6;6;
78408;PMS5003;67697;50.750;-3.270;2023-06-14T10:54:13;8;7;
78408;PMS5003;67697;50.750;-3.270;2023-06-14T10:56:39;7;7;
78408;PMS5003;67697;50.750;-3.270;2023-06-14T10:59:04;8;7;
78408;PMS5003;67697;50.750;-3.270;2023-06-14T11:01:32;6;4;
78408;PMS5003;67697;50.750;-3.270;2023-06-14T11:03:54;8;8;
78408;PMS5003;67697;50.750;-3.270;2023-06-14T11:06:21;7;7;
78408;PMS5003;67697;50.750;-3.270;2023-06-14T11:08:51;6;5;
78408;PMS5003;67697;50.750;-3.270;2023-06-14T11:11:11;8;8;
78408;PMS5003;67697;50.750;-3.270;2023-06-14T11:13:36;6;6;
78408;PMS5003;67697;50.750;-3.270;2023-06-14T11:16:01;5;5;
78408;PMS5003;67697;50.750;-3.270;2023-06-14T11:18:28;6;6;
78408;PMS5003;67697;50.750;-3.270;2023-06-14T11:20:53;7;7;
78408;PMS5003;67697;50.750;-3.270;2023-06-14T11:23:18;6;5;
78408;PMS5003;67697;50.750;-3.270;2023-06-14T11:25:43;5;5;
78408;PMS5003;67697;50.750;-3.270;2023-06-14T11:28:09;7;6;
78408;PMS5003;67697;50.750;-3.270;2023-06-14T11:30:34;6;5;
78408;PMS5003;67697;50.750;-3.270;2023-06-14T11:33:00;6;6;
78408;PMS5003;67697;50.750;-3.270;2023-06-14T11:35:25;8;7;
78408;PMS5003;67697;50.750;-3.270;2023-06-14T11:37:52;5;5;
78408;PMS5003;67697;50.750;-3.270;2023-06-14T11:40:16;10;10;
78408;PMS5003;67697;50.750;-3.270;2023-06-14T11:42:41;5;5;
78408;PMS5003;67697;50.750;-3.270;2023-06-14T11:45:07;8;8;
78408;PMS5003;67697;50.750;-3.270;2023-06-14T11:47:32;8;7;
78408;PMS5003;67697;50.750;-3.270;2023-06-14T11:49:58;8;7;
78408;PMS5003;67697;50.750;-3.270;2023-06-14T11:52:23;8;8;
78408;PMS5003;67697;50.750;-3.270;2023-06-14T11:54:48;9;7;
78408;PMS5003;67697;50.750;-3.270;2023-06-14T11:57:14;8;8;
78408;PMS5003;67697;50.750;-3.270;2023-06-14T11:59:39;8;8;
78408;PMS5003;67697;50.750;-3.270;2023-06-14T12:02:05;7;7;
78408;PMS5003;67697;50.750;-3.270;2023-06-14T12:04:30;8;8;
78408;PMS5003;67697;50.750;-3.270;2023-06-14T12:06:56;9;9;
78408;PMS5003;67697;50.750;-3.270;2023-06-14T12:09:21;9;7;
78408;PMS5003;67697;50.750;-3.270;2023-06-14T12:11:46;11;9;
78408;PMS5003;67697;50.750;-3.270;2023-06-14T12:14:11;9;9;
78408;PMS5003;67697;50.750;-3.270;2023-06-14T12:16:38;10;10;
78408;PMS5003;67697;50.750;-3.270;2023-06-14T12:21:28;12;10;
78408;PMS5003;67697;50.750;-3.270;2023-06-14T12:23:53;13;12;
78408;PMS5003;67697;50.750;-3.270;2023-06-14T12:26:19;11;10;
78408;PMS5003;67697;50.750;-3.270;2023-06-14T12:28:44;13;12;
78408;PMS5003;67697;50.750;-3.270;2023-06-14T12:31:10;11;10;
78408;PMS5003;67697;50.750;-3.270;2023-06-14T12:33:34;13;13;
78408;PMS5003;67697;50.750;-3.270;2023-06-14T12:35:59;12;12;
78408;PMS5003;67697;50.750;-3.270;2023-06-14T12:38:25;13;12;
78408;PMS5003;67697;50.750;-3.270;2023-06-14T12:40:50;13;13;
78408;PMS5003;67697;50.750;-3.270;2023-06-14T12:43:16;14;13;
78408;PMS5003;67697;50.750;-3.270;2023-06-14T12:45:41;12;12;
78408;PMS5003;67697;50.750;-3.270;2023-06-14T12:48:06;13;13;
78408;PMS5003;67697;50.750;-3.270;2023-06-14T12:50:31;16;16;
78408;PMS5003;67697;50.750;-3.270;2023-06-14T12:52:57;14;14;
78408;PMS5003;67697;50.750;-3.270;2023-06-14T12:55:22;14;13;
78408;PMS5003;67697;50.750;-3.270;2023-06-14T12:57:48;15;14;
78408;PMS5003;67697;50.750;-3.270;2023-06-14T13:00:14;21;19;
78408;PMS5003;67697;50.750;-3.270;2023-06-14T13:02:39;15;15;
78408;PMS5003;67697;50.750;-3.270;2023-06-14T13:05:04;15;14;
78408;PMS5003;67697;50.750;-3.270;2023-06-14T13:07:30;18;18;
78408;PMS5003;67697;50.750;-3.270;2023-06-14T13:09:55;17;15;
78408;PMS5003;67697;50.750;-3.270;2023-06-14T13:12:21;20;20;
78408;PMS5003;67697;50.750;-3.270;2023-06-14T13:14:46;15;15;
78408;PMS5003;67697;50.750;-3.270;2023-06-14T13:17:11;15;15;
78408;PMS5003;67697;50.750;-3.270;2023-06-14T13:19:37;16;14;
78408;PMS5003;67697;50.750;-3.270;2023-06-14T13:22:03;16;16;
78408;PMS5003;67697;50.750;-3.270;2023-06-14T13:24:28;13;13;
78408;PMS5003;67697;50.750;-3.270;2023-06-14T13:26:54;16;15;
78408;PMS5003;67697;50.750;-3.270;2023-06-14T13:29:19;15;13;
78408;PMS5003;67697;50.750;-3.270;2023-06-14T13:31:45;19;18;
78408;PMS5003;67697;50.750;-3.270;2023-06-14T13:34:10;17;15;
78408;PMS5003;67697;50.750;-3.270;2023-06-14T13:36:35;13;13;
78408;PMS5003;67697;50.750;-3.270;2023-06-14T13:39:01;18;18;
78408;PMS5003;67697;50.750;-3.270;2023-06-14T13:41:27;20;17;
78408;PMS5003;67697;50.750;-3.270;2023-06-14T13:43:52;12;12;
78408;PMS5003;67697;50.750;-3.270;2023-06-14T13:46:17;15;15;
78408;PMS5003;67697;50.750;-3.270;2023-06-14T13:48:42;14;14;
78408;PMS5003;67697;50.750;-3.270;2023-06-14T13:51:07;15;15;
78408;PMS5003;67697;50.750;-3.270;2023-06-14T13:53:32;20;18;
78408;PMS5003;67697;50.750;-3.270;2023-06-14T13:55:58;14;14;
78408;PMS5003;67697;50.750;-3.270;2023-06-14T13:58:23;16;16;
78408;PMS5003;67697;50.750;-3.270;2023-06-14T14:00:49;16;15;
78408;PMS5003;67697;50.750;-3.270;2023-06-14T14:03:14;22;15;
78408;PMS5003;67697;50.750;-3.270;2023-06-14T14:05:40;15;15;
78408;PMS5003;67697;50.750;-3.270;2023-06-14T14:08:05;13;13;
78408;PMS5003;67697;50.750;-3.270;2023-06-14T14:10:31;15;15;
78408;PMS5003;67697;50.750;-3.270;2023-06-14T14:12:56;15;15;
78408;PMS5003;67697;50.750;-3.270;2023-06-14T14:15:22;13;13;
78408;PMS5003;67697;50.750;-3.270;2023-06-14T14:17:47;10;10;
78408;PMS5003;67697;50.750;-3.270;2023-06-14T14:20:13;13;13;
78408;PMS5003;67697;50.750;-3.270;2023-06-14T14:22:38;13;13;
78408;PMS5003;67697;50.750;-3.270;2023-06-14T14:25:04;15;14;
78408;PMS5003;67697;50.750;-3.270;2023-06-14T14:27:28;17;15;
78408;PMS5003;67697;50.750;-3.270;2023-06-14T14:29:54;16;16;
78408;PMS5003;67697;50.750;-3.270;2023-06-14T14:32:20;16;14;
78408;PMS5003;67697;50.750;-3.270;2023-06-14T14:34:45;15;13;
78408;PMS5003;67697;50.750;-3.270;2023-06-14T14:37:10;15;15;
78408;PMS5003;67697;50.750;-3.270;2023-06-14T14:39:36;14;14;
78408;PMS5003;67697;50.750;-3.270;2023-06-14T14:42:01;13;13;
78408;PMS5003;67697;50.750;-3.270;2023-06-14T14:44:26;13;13;
78408;PMS5003;67697;50.750;-3.270;2023-06-14T14:46:51;16;16;
78408;PMS5003;67697;50.750;-3.270;2023-06-14T14:49:17;14;13;
78408;PMS5003;67697;50.750;-3.270;2023-06-14T14:51:42;12;12;
78408;PMS5003;67697;50.750;-3.270;2023-06-14T14:54:07;15;15;
78408;PMS5003;67697;50.750;-3.270;2023-06-14T14:56:33;14;13;
78408;PMS5003;67697;50.750;-3.270;2023-06-14T14:58:58;14;13;
78408;PMS5003;67697;50.750;-3.270;2023-06-14T15:01:23;13;13;
78408;PMS5003;67697;50.750;-3.270;2023-06-14T15:03:49;15;15;
78408;PMS5003;67697;50.750;-3.270;2023-06-14T15:06:14;18;16;
78408;PMS5003;67697;50.750;-3.270;2023-06-14T15:08:39;17;15;
78408;PMS5003;67697;50.750;-3.270;2023-06-14T15:11:04;15;15;
78408;PMS5003;67697;50.750;-3.270;2023-06-14T15:13:30;15;14;
78408;PMS5003;67697;50.750;-3.270;2023-06-14T15:15:55;17;16;
78408;PMS5003;67697;50.750;-3.270;2023-06-14T15:18:20;16;15;
78408;PMS5003;67697;50.750;-3.270;2023-06-14T15:20:46;13;13;
78408;PMS5003;67697;50.750;-3.270;2023-06-14T15:23:11;13;13;
78408;PMS5003;67697;50.750;-3.270;2023-06-14T15:25:36;18;16;
78408;PMS5003;67697;50.750;-3.270;2023-06-14T15:28:02;17;17;
78408;PMS5003;67697;50.750;-3.270;2023-06-14T15:30:27;14;14;
78408;PMS5003;67697;50.750;-3.270;2023-06-14T15:32:53;15;15;
78408;PMS5003;67697;50.750;-3.270;2023-06-14T15:35:18;15;15;
78408;PMS5003;67697;50.750;-3.270;2023-06-14T15:37:44;15;14;
78408;PMS5003;67697;50.750;-3.270;2023-06-14T15:40:09;16;14;
78408;PMS5003;67697;50.750;-3.270;2023-06-14T15:42:35;15;14;
78408;PMS5003;67697;50.750;-3.270;2023-06-14T15:45:00;13;13;
78408;PMS5003;67697;50.750;-3.270;2023-06-14T15:47:25;12;12;
78408;PMS5003;67697;50.750;-3.270;2023-06-14T15:49:51;14;14;
78408;PMS5003;67697;50.750;-3.270;2023-06-14T15:52:16;14;13;
78408;PMS5003;67697;50.750;-3.270;2023-06-14T15:54:42;17;17;
78408;PMS5003;67697;50.750;-3.270;2023-06-14T15:57:07;14;11;
78408;PMS5003;67697;50.750;-3.270;2023-06-14T15:59:33;17;16;
78408;PMS5003;67697;50.750;-3.270;2023-06-14T16:01:58;16;16;